Time;durP1;ratioP1;P1;durP2;ratioP2;P2;SDS_P1;SDS_P2;PMS_P1;PMS_P2;Temp;Humidity;BMP_temperature;BMP_pressure;BME280_temperature;BME280_humidity;BME280_pressure;Samples;Min_cycle;Max_cycle;Signal;HPM_P1;HPM_P2
2022/02/23 00:01:30;;;;;;;1.20;1.10;;;-4.30;99.90;;;;;;5127896;28;20203;-82
2022/02/23 00:03:56;;;;;;;0.70;0.70;;;-4.20;99.90;;;;;;5113539;28;20207;-81
2022/02/23 00:06:22;;;;;;;0.90;0.90;;;-4.20;99.90;;;;;;5124520;28;20693;-82
2022/02/23 00:08:48;;;;;;;0.85;0.85;;;-4.20;99.90;;;;;;5115765;28;20211;-82
2022/02/23 00:11:15;;;;;;;0.90;0.90;;;-4.20;99.90;;;;;;5105362;28;20553;-81
2022/02/23 00:13:41;;;;;;;0.90;0.90;;;-4.20;99.90;;;;;;5125729;28;20203;-81
2022/02/23 00:16:07;;;;;;;0.90;0.90;;;-4.20;99.90;;;;;;5104689;28;20218;-81
2022/02/23 00:18:32;;;;;;;1.08;1.08;;;-4.20;99.90;;;;;;5118865;28;20208;-81
2022/02/23 00:21:01;;;;;;;0.90;0.90;;;-4.10;99.90;;;;;;5109021;28;20673;-81
2022/02/23 00:23:27;;;;;;;0.77;0.77;;;-4.10;99.90;;;;;;5121628;27;20353;-81
2022/02/23 00:25:53;;;;;;;1.20;1.20;;;-4.10;99.90;;;;;;5128047;28;20694;-81
2022/02/23 00:28:18;;;;;;;0.80;0.80;;;-4.10;99.90;;;;;;5109083;28;20199;-81
2022/02/23 00:30:44;;;;;;;1.10;1.10;;;-4.10;99.90;;;;;;5116937;27;20205;-82
2022/02/23 00:33:10;;;;;;;0.82;0.82;;;-4.00;99.90;;;;;;5133196;27;20195;-81
2022/02/23 00:35:36;;;;;;;0.80;0.80;;;-4.00;99.90;;;;;;5129328;27;20199;-82
2022/02/23 00:38:02;;;;;;;0.90;0.90;;;-4.00;99.90;;;;;;5130891;27;20671;-82
2022/02/23 00:40:28;;;;;;;0.93;0.93;;;-4.10;99.90;;;;;;5131904;27;20227;-82
2022/02/23 00:42:56;;;;;;;0.80;0.80;;;-4.10;99.90;;;;;;5131988;27;20253;-82
2022/02/23 00:45:22;;;;;;;0.88;0.88;;;-4.00;99.90;;;;;;5113725;27;20245;-82
2022/02/23 00:47:48;;;;;;;0.80;0.80;;;-4.00;99.90;;;;;;5113727;28;20681;-82
2022/02/23 00:50:13;;;;;;;0.90;0.90;;;-4.00;99.90;;;;;;5130579;27;20199;-82
2022/02/23 00:52:39;;;;;;;0.90;0.90;;;-4.00;99.90;;;;;;5130034;27;20234;-82
2022/02/23 00:55:05;;;;;;;0.90;0.90;;;-4.00;99.90;;;;;;5131262;27;20524;-82
2022/02/23 00:57:31;;;;;;;1.10;1.10;;;-4.00;99.90;;;;;;5116940;27;20218;-82
2022/02/23 00:59:57;;;;;;;0.90;0.90;;;-4.00;99.90;;;;;;5118457;27;20212;-82
2022/02/23 01:02:24;;;;;;;1.10;1.05;;;-4.00;99.90;;;;;;5107935;28;20207;-82
2022/02/23 01:04:49;;;;;;;0.90;0.90;;;-4.00;99.90;;;;;;5131349;27;20665;-82
2022/02/23 01:07:15;;;;;;;0.90;0.90;;;-4.00;99.90;;;;;;5114455;28;20201;-82
2022/02/23 01:09:42;;;;;;;0.80;0.80;;;-4.00;99.90;;;;;;5130005;27;20198;-82
2022/02/23 01:12:08;;;;;;;0.90;0.90;;;-4.10;99.90;;;;;;5123636;27;20203;-83
2022/02/23 01:14:34;;;;;;;0.80;0.80;;;-4.10;99.90;;;;;;5108982;27;20286;-82
2022/02/23 01:17:00;;;;;;;0.80;0.80;;;-4.00;99.90;;;;;;5129853;27;20221;-82
2022/02/23 01:19:26;;;;;;;0.90;0.90;;;-4.00;99.90;;;;;;5126499;27;20316;-82
2022/02/23 01:21:51;;;;;;;6.63;3.55;;;-4.00;99.90;;;;;;5114668;27;20245;-82
2022/02/23 01:24:17;;;;;;;0.90;0.90;;;-4.10;99.90;;;;;;5129535;27;20207;-82
2022/02/23 01:26:43;;;;;;;0.80;0.80;;;-4.10;99.90;;;;;;5115331;28;20242;-82
2022/02/23 01:29:09;;;;;;;0.90;0.90;;;-4.10;99.90;;;;;;5113890;28;20681;-82
2022/02/23 01:31:35;;;;;;;0.90;0.90;;;-4.10;99.90;;;;;;5130106;27;20227;-82
2022/02/23 01:34:00;;;;;;;0.90;0.90;;;-4.10;99.90;;;;;;5132069;27;20191;-82
2022/02/23 01:36:26;;;;;;;0.80;0.80;;;-4.10;99.90;;;;;;5113798;28;20199;-82
2022/02/23 01:38:52;;;;;;;1.00;1.00;;;-4.10;99.90;;;;;;5130843;27;20196;-81
2022/02/23 01:41:19;;;;;;;0.90;0.90;;;-4.10;99.90;;;;;;5129043;27;20207;-82
2022/02/23 01:43:47;;;;;;;1.00;1.00;;;-4.10;99.90;;;;;;5115007;27;20212;-82
2022/02/23 01:46:13;;;;;;;0.88;0.88;;;-4.10;99.90;;;;;;5122781;27;20206;-81
2022/02/23 01:48:38;;;;;;;0.80;0.80;;;-4.10;99.90;;;;;;5117707;27;20203;-82
2022/02/23 01:51:04;;;;;;;0.80;0.80;;;-4.10;99.90;;;;;;5124854;27;20199;-82
2022/02/23 01:53:30;;;;;;;0.85;0.85;;;-4.10;99.90;;;;;;5128688;27;20230;-83
2022/02/23 01:55:55;;;;;;;0.90;0.90;;;-4.10;99.90;;;;;;5130242;27;20195;-82
2022/02/23 01:58:21;;;;;;;0.80;0.80;;;-4.10;99.90;;;;;;5121190;27;20206;-82
2022/02/23 02:00:47;;;;;;;0.90;0.90;;;-4.10;99.90;;;;;;5118922;27;20262;-82
2022/02/23 02:03:13;;;;;;;1.00;1.00;;;-4.10;99.90;;;;;;5130104;27;20214;-82
2022/02/23 02:05:39;;;;;;;0.80;0.80;;;-4.10;99.90;;;;;;5124384;27;20195;-82
2022/02/23 02:08:05;;;;;;;0.90;0.90;;;-4.10;99.90;;;;;;5126210;27;20234;-81
2022/02/23 02:10:30;;;;;;;0.90;0.90;;;-4.10;99.90;;;;;;5097753;28;20222;-82
2022/02/23 02:12:56;;;;;;;1.55;1.45;;;-4.10;99.90;;;;;;5129039;27;20231;-82
2022/02/23 02:15:22;;;;;;;0.90;0.90;;;-4.10;99.90;;;;;;5114652;27;20199;-82
2022/02/23 02:17:48;;;;;;;0.90;0.90;;;-4.10;99.90;;;;;;5129265;27;20200;-82
2022/02/23 02:20:13;;;;;;;0.83;0.83;;;-4.10;99.90;;;;;;5112963;28;20222;-83
2022/02/23 02:22:39;;;;;;;0.80;0.80;;;-4.10;99.90;;;;;;5129236;27;20218;-82
2022/02/23 02:25:06;;;;;;;0.85;0.85;;;-4.00;99.90;;;;;;5111774;27;20207;-82
2022/02/23 02:27:32;;;;;;;0.85;0.85;;;-4.00;99.90;;;;;;5112799;28;20223;-82
2022/02/23 02:29:59;;;;;;;0.80;0.80;;;-3.90;99.90;;;;;;5118479;28;20203;-82
2022/02/23 02:32:25;;;;;;;0.90;0.90;;;-3.90;99.90;;;;;;5123727;28;20231;-86
2022/02/23 02:34:50;;;;;;;0.80;0.80;;;-3.90;99.90;;;;;;5138374;27;20256;-82
2022/02/23 02:37:17;;;;;;;0.80;0.80;;;-3.90;99.90;;;;;;5119341;28;20211;-82
2022/02/23 02:39:42;;;;;;;0.80;0.80;;;-4.00;99.90;;;;;;5134121;27;20202;-82
2022/02/23 02:42:09;;;;;;;2.13;1.98;;;-4.00;99.90;;;;;;5125118;27;20238;-82
2022/02/23 02:44:36;;;;;;;0.70;0.70;;;-4.00;99.90;;;;;;5137542;27;20220;-82
2022/02/23 02:47:02;;;;;;;0.80;0.80;;;-4.00;99.90;;;;;;5131092;27;20201;-83
2022/02/23 02:49:28;;;;;;;0.63;0.63;;;-4.10;99.90;;;;;;5137531;27;20219;-85
2022/02/23 02:51:54;;;;;;;0.85;0.85;;;-4.10;99.90;;;;;;5136261;27;20235;-83
2022/02/23 02:54:20;;;;;;;0.90;0.90;;;-4.10;99.90;;;;;;5133977;28;20221;-85
2022/02/23 02:56:46;;;;;;;0.77;0.77;;;-4.20;99.90;;;;;;5152020;27;20198;-82
2022/02/23 02:59:12;;;;;;;0.80;0.80;;;-4.10;99.90;;;;;;5137062;28;20200;-82
2022/02/23 03:01:38;;;;;;;4.68;2.60;;;-4.20;99.90;;;;;;5142521;27;21255;-83
2022/02/23 03:04:06;;;;;;;0.90;0.90;;;-4.20;99.90;;;;;;5142200;27;20209;-84
2022/02/23 03:06:32;;;;;;;0.80;0.80;;;-4.20;99.90;;;;;;5145489;27;20205;-82
2022/02/23 03:08:58;;;;;;;1.00;1.00;;;-4.10;99.90;;;;;;5136693;28;20288;-82
2022/02/23 03:11:24;;;;;;;0.90;0.90;;;-4.20;99.90;;;;;;5153495;27;20212;-83
2022/02/23 03:13:50;;;;;;;0.70;0.70;;;-4.10;99.90;;;;;;5142308;27;20186;-82
2022/02/23 03:16:16;;;;;;;1.35;1.27;;;-4.10;99.90;;;;;;5153778;27;20199;-82
2022/02/23 03:18:42;;;;;;;0.82;0.82;;;-4.10;99.90;;;;;;5143640;27;20210;-81
2022/02/23 03:21:09;;;;;;;0.88;0.88;;;-4.10;99.90;;;;;;5145470;27;20195;-82
2022/02/23 03:23:37;;;;;;;0.80;0.80;;;-4.10;99.90;;;;;;5141833;27;20205;-83
2022/02/23 03:26:04;;;;;;;0.77;0.77;;;-4.00;99.90;;;;;;5138471;27;20191;-82
2022/02/23 03:28:31;;;;;;;0.90;0.90;;;-3.90;99.90;;;;;;5143680;27;20219;-84
2022/02/23 03:30:58;;;;;;;0.90;0.90;;;-4.00;99.90;;;;;;5151616;27;20206;-82
2022/02/23 03:33:24;;;;;;;0.88;0.88;;;-3.90;99.90;;;;;;5132846;27;20643;-82
2022/02/23 03:35:49;;;;;;;0.80;0.80;;;-3.90;99.90;;;;;;5132884;27;20211;-83
2022/02/23 03:38:15;;;;;;;0.90;0.90;;;-3.90;99.90;;;;;;5114020;28;20195;-82
2022/02/23 03:40:42;;;;;;;0.82;0.82;;;-3.80;99.90;;;;;;5114563;28;20195;-82
2022/02/23 03:43:09;;;;;;;0.82;0.82;;;-3.90;99.90;;;;;;5115740;28;20286;-82
2022/02/23 03:45:35;;;;;;;0.90;0.90;;;-3.90;99.90;;;;;;5127565;27;20554;-82
2022/02/23 03:48:02;;;;;;;0.88;0.88;;;-3.90;99.90;;;;;;5128564;27;20195;-82
2022/02/23 03:50:27;;;;;;;0.90;0.90;;;-3.90;99.90;;;;;;5129079;27;20199;-82
2022/02/23 03:52:53;;;;;;;0.80;0.80;;;-3.90;99.90;;;;;;5118581;27;20222;-82
2022/02/23 03:55:19;;;;;;;0.88;0.88;;;-3.90;99.90;;;;;;5128590;27;20289;-83
2022/02/23 03:57:44;;;;;;;0.80;0.80;;;-3.90;99.90;;;;;;5111739;28;20207;-81
2022/02/23 04:00:13;;;;;;;0.80;0.80;;;-3.90;99.90;;;;;;5126388;27;20204;-82
2022/02/23 04:02:40;;;;;;;0.90;0.90;;;-3.90;99.90;;;;;;5106822;28;20216;-82
2022/02/23 04:05:06;;;;;;;0.80;0.80;;;-3.90;99.90;;;;;;5109691;28;20195;-81
2022/02/23 04:07:33;;;;;;;0.90;0.90;;;-3.80;99.90;;;;;;5126893;28;20195;-81
2022/02/23 04:09:59;;;;;;;0.90;0.90;;;-3.90;99.90;;;;;;5128506;28;20200;-82
2022/02/23 04:12:25;;;;;;;0.80;0.80;;;-3.90;99.90;;;;;;5112305;28;20669;-81
2022/02/23 04:14:52;;;;;;;0.90;0.90;;;-3.80;99.90;;;;;;5099908;28;20254;-81
2022/02/23 04:17:17;;;;;;;0.70;0.70;;;-3.80;99.90;;;;;;5110011;28;20731;-82
2022/02/23 04:19:43;;;;;;;0.85;0.85;;;-3.80;99.90;;;;;;5128145;28;20207;-82
2022/02/23 04:22:09;;;;;;;0.88;0.88;;;-3.80;99.90;;;;;;5102047;28;20287;-82
2022/02/23 04:24:35;;;;;;;0.90;0.90;;;-3.80;99.90;;;;;;5110884;28;20200;-83
2022/02/23 04:27:02;;;;;;;0.80;0.80;;;-3.80;99.90;;;;;;5120290;28;20202;-82
2022/02/23 04:29:28;;;;;;;0.80;0.80;;;-3.80;99.90;;;;;;5118550;28;20666;-82
2022/02/23 04:31:54;;;;;;;1.00;1.00;;;-3.80;99.90;;;;;;5119133;28;20206;-85
2022/02/23 04:34:20;;;;;;;1.00;1.00;;;-3.70;99.90;;;;;;5119928;28;20753;-83
2022/02/23 04:36:46;;;;;;;0.85;0.85;;;-3.70;99.90;;;;;;5119358;28;20231;-83
2022/02/23 04:39:12;;;;;;;0.90;0.90;;;-3.70;99.90;;;;;;5121143;27;20598;-82
2022/02/23 04:41:38;;;;;;;0.80;0.80;;;-3.70;99.90;;;;;;5127668;28;20203;-82
2022/02/23 04:44:05;;;;;;;0.80;0.80;;;-3.70;99.90;;;;;;5126810;28;20212;-81
2022/02/23 04:46:31;;;;;;;0.90;0.90;;;-3.70;99.90;;;;;;5110513;28;20206;-81
2022/02/23 04:48:57;;;;;;;0.85;0.85;;;-3.60;99.90;;;;;;5127141;28;20195;-81
2022/02/23 04:51:27;;;;;;;0.80;0.80;;;-3.60;99.90;;;;;;5115506;28;20216;-82
2022/02/23 04:53:52;;;;;;;0.80;0.80;;;-3.60;99.90;;;;;;5123281;28;20295;-82
2022/02/23 04:56:18;;;;;;;0.90;0.90;;;-3.60;99.90;;;;;;5110703;28;20706;-83
2022/02/23 04:58:44;;;;;;;3.05;1.63;;;-3.60;99.90;;;;;;5110892;28;20256;-81
2022/02/23 05:01:11;;;;;;;0.85;0.85;;;-3.60;99.90;;;;;;5127326;28;20206;-82
2022/02/23 05:03:37;;;;;;;0.90;0.90;;;-3.60;99.90;;;;;;5126607;28;20648;-82
2022/02/23 05:06:03;;;;;;;1.58;1.48;;;-3.70;99.90;;;;;;5127739;28;20663;-82
2022/02/23 05:08:29;;;;;;;0.85;0.85;;;-3.70;99.90;;;;;;5127746;28;20199;-81
2022/02/23 05:10:58;;;;;;;0.80;0.80;;;-3.60;99.90;;;;;;5109470;28;20199;-84
2022/02/23 05:13:29;;;;;;;0.82;0.82;;;-3.60;99.90;;;;;;5108334;28;20212;-81
2022/02/23 05:16:02;;;;;;;0.90;0.90;;;-3.60;99.90;;;;;;5109979;28;20207;-84
2022/02/23 05:18:28;;;;;;;0.98;0.98;;;-3.60;99.90;;;;;;5132250;27;20662;-81
2022/02/23 05:20:59;;;;;;;1.15;1.15;;;-3.70;99.90;;;;;;5099740;28;20208;-82
2022/02/23 05:23:26;;;;;;;0.80;0.80;;;-3.70;99.90;;;;;;5113966;27;20729;-82
2022/02/23 05:25:53;;;;;;;0.90;0.90;;;-3.70;99.90;;;;;;5128579;27;20767;-81
2022/02/23 05:28:20;;;;;;;0.80;0.80;;;-3.70;99.90;;;;;;5116553;27;20207;-82
2022/02/23 05:30:46;;;;;;;0.90;0.90;;;-3.70;99.90;;;;;;5109857;28;20290;-81
2022/02/23 05:33:12;;;;;;;0.90;0.90;;;-3.70;99.90;;;;;;5115150;28;20630;-82
2022/02/23 05:35:39;;;;;;;0.82;0.82;;;-3.60;99.90;;;;;;5129641;27;20593;-81
2022/02/23 05:38:06;;;;;;;0.85;0.85;;;-3.60;99.90;;;;;;5120633;27;20709;-81
2022/02/23 05:40:33;;;;;;;1.00;1.00;;;-3.60;99.90;;;;;;5114119;27;20203;-82
2022/02/23 05:42:58;;;;;;;0.90;0.90;;;-3.60;99.90;;;;;;5130301;27;20211;-81
2022/02/23 05:45:25;;;;;;;0.90;0.90;;;-3.60;99.90;;;;;;5119977;27;20210;-81
2022/02/23 05:47:50;;;;;;;0.90;0.90;;;-3.60;99.90;;;;;;5123782;27;20200;-82
2022/02/23 05:50:16;;;;;;;1.15;1.15;;;-3.70;99.90;;;;;;5100500;28;20681;-82
2022/02/23 05:52:42;;;;;;;0.80;0.80;;;-3.70;99.90;;;;;;5126792;27;20230;-81
2022/02/23 05:55:08;;;;;;;0.90;0.90;;;-3.70;99.90;;;;;;5100285;27;20655;-81
2022/02/23 05:57:34;;;;;;;1.10;1.10;;;-3.60;99.90;;;;;;5128990;27;20211;-83
2022/02/23 06:00:01;;;;;;;1.35;1.25;;;-3.60;99.90;;;;;;5129022;27;20207;-83
2022/02/23 06:02:26;;;;;;;0.80;0.80;;;-3.60;99.90;;;;;;5130130;27;20275;-83
2022/02/23 06:04:52;;;;;;;2.10;1.90;;;-3.60;99.90;;;;;;5113257;28;20219;-83
2022/02/23 06:07:18;;;;;;;0.70;0.70;;;-3.50;99.90;;;;;;5130335;27;20694;-83
2022/02/23 06:09:44;;;;;;;0.90;0.90;;;-3.50;99.90;;;;;;5112282;28;20203;-82
2022/02/23 06:12:11;;;;;;;0.82;0.82;;;-3.50;99.90;;;;;;5113512;27;20671;-82
2022/02/23 06:14:37;;;;;;;0.90;0.90;;;-3.50;99.90;;;;;;5101689;28;20254;-82
2022/02/23 06:17:03;;;;;;;0.90;0.90;;;-3.50;99.90;;;;;;5109601;28;20204;-82
2022/02/23 06:19:29;;;;;;;0.88;0.88;;;-3.50;99.90;;;;;;5124991;27;20204;-82
2022/02/23 06:21:55;;;;;;;0.88;0.88;;;-3.50;99.90;;;;;;5128792;27;20208;-82
2022/02/23 06:24:21;;;;;;;0.80;0.80;;;-3.50;99.90;;;;;;5118927;27;20215;-82
2022/02/23 06:26:47;;;;;;;0.70;0.70;;;-3.50;99.90;;;;;;5105473;28;20227;-82
2022/02/23 06:29:13;;;;;;;0.63;0.63;;;-3.50;99.90;;;;;;5119617;27;20196;-82
2022/02/23 06:31:39;;;;;;;0.80;0.80;;;-3.50;99.90;;;;;;5103288;28;20581;-82
2022/02/23 06:34:05;;;;;;;0.80;0.80;;;-3.50;99.90;;;;;;5112765;28;20204;-83
2022/02/23 06:36:35;;;;;;;0.80;0.80;;;-3.50;99.90;;;;;;5123305;27;20349;-82
2022/02/23 06:39:01;;;;;;;0.90;0.90;;;-3.50;99.90;;;;;;5103779;27;20715;-81
2022/02/23 06:41:27;;;;;;;0.80;0.80;;;-3.50;99.90;;;;;;5124110;27;20673;-81
2022/02/23 06:43:54;;;;;;;1.13;1.13;;;-3.50;99.90;;;;;;5126898;27;20223;-82
2022/02/23 06:46:21;;;;;;;0.90;0.90;;;-3.50;99.90;;;;;;5128297;27;20581;-83
2022/02/23 06:48:48;;;;;;;0.88;0.88;;;-3.40;99.90;;;;;;5112993;27;20195;-82
2022/02/23 06:51:18;;;;;;;0.93;0.93;;;-3.40;99.90;;;;;;5129619;27;20195;-83
2022/02/23 06:53:48;;;;;;;0.90;0.90;;;-3.40;99.90;;;;;;5111058;28;20222;-83
2022/02/23 06:56:15;;;;;;;0.82;0.82;;;-3.40;99.90;;;;;;5108795;27;20639;-82
2022/02/23 06:58:44;;;;;;;0.90;0.90;;;-3.30;99.90;;;;;;5129024;27;20646;-83
2022/02/23 07:01:19;;;;;;;2.38;2.17;;;-3.20;99.90;;;;;;5104013;28;20293;-82
2022/02/23 07:03:46;;;;;;;0.88;0.88;;;-3.20;99.90;;;;;;5111536;27;20237;-81
2022/02/23 07:06:13;;;;;;;0.80;0.80;;;-3.20;99.90;;;;;;5108445;28;20282;-82
2022/02/23 07:08:46;;;;;;;0.82;0.82;;;-3.10;99.90;;;;;;5109994;28;20199;-82
2022/02/23 07:11:11;;;;;;;0.85;0.85;;;-3.10;99.90;;;;;;5104361;28;20291;-82
2022/02/23 07:13:41;;;;;;;0.90;0.90;;;-3.00;99.90;;;;;;5112149;27;20873;-82
2022/02/23 07:16:12;;;;;;;0.80;0.80;;;-3.00;99.90;;;;;;5128037;27;20195;-82
2022/02/23 07:18:53;;;;;;;;;;;;;;;;;;;;;
2022/02/23 07:21:19;;;;;;;0.90;0.90;;;-3.00;99.90;;;;;;5111623;28;20210;-82
2022/02/23 07:23:48;;;;;;;0.90;0.90;;;-3.00;99.90;;;;;;5121025;27;20290;-82
2022/02/23 07:26:16;;;;;;;0.82;0.82;;;-2.90;99.90;;;;;;5105900;27;20738;-82
2022/02/23 07:28:42;;;;;;;0.80;0.80;;;-2.80;99.90;;;;;;5122068;27;20200;-82
2022/02/23 07:31:09;;;;;;;0.90;0.90;;;-2.70;99.90;;;;;;5111779;28;20200;-82
2022/02/23 07:33:36;;;;;;;0.95;0.95;;;-2.70;99.90;;;;;;5128405;27;20685;-82
2022/02/23 07:36:02;;;;;;;0.90;0.90;;;-2.60;99.90;;;;;;5102868;28;20203;-82
2022/02/23 07:38:28;;;;;;;0.85;0.85;;;-2.70;99.90;;;;;;5127381;27;20207;-82
2022/02/23 07:40:53;;;;;;;0.85;0.85;;;-2.60;99.90;;;;;;5127697;27;20207;-82
2022/02/23 07:43:19;;;;;;;0.80;0.80;;;-2.60;99.90;;;;;;5110429;28;20209;-82
2022/02/23 07:45:45;;;;;;;0.80;0.80;;;-2.50;99.90;;;;;;5110408;27;20245;-82
2022/02/23 07:48:10;;;;;;;0.73;0.73;;;-2.30;99.90;;;;;;5110540;28;20243;-82
2022/02/23 07:50:38;;;;;;;1.10;1.10;;;-2.20;99.90;;;;;;5110353;28;20207;-82
2022/02/23 07:53:04;;;;;;;0.98;0.98;;;-2.10;99.90;;;;;;5109613;28;20223;-82
2022/02/23 07:55:30;;;;;;;0.82;0.82;;;-1.90;99.90;;;;;;5128147;27;20413;-82
2022/02/23 07:57:58;;;;;;;1.02;1.02;;;-1.80;99.90;;;;;;5111462;28;20684;-82
2022/02/23 08:00:24;;;;;;;0.90;0.90;;;-1.70;99.90;;;;;;5114114;27;20249;-82
2022/02/23 08:02:49;;;;;;;1.08;0.98;;;-1.70;99.90;;;;;;5116480;28;20218;-82
2022/02/23 08:05:15;;;;;;;1.00;1.00;;;-1.60;99.90;;;;;;5117369;28;20252;-82
2022/02/23 08:07:41;;;;;;;0.90;0.90;;;-1.50;99.90;;;;;;5127145;28;20723;-82
2022/02/23 08:10:07;;;;;;;1.15;1.05;;;-1.40;99.90;;;;;;5116486;28;20204;-82
2022/02/23 08:12:33;;;;;;;0.80;0.80;;;-1.30;99.90;;;;;;5107177;28;20247;-82
2022/02/23 08:19:30;;;;;;;0.80;0.80;;;-1.20;99.90;;;;;;5123147;27;20199;-82
2022/02/23 08:20:28;;;;;;;0.80;0.80;;;-1.00;99.90;;;;;;5120163;28;20618;-82
2022/02/23 08:22:55;;;;;;;0.80;0.80;;;-0.90;99.90;;;;;;5118834;28;20207;-82
2022/02/23 08:25:21;;;;;;;0.85;0.85;;;-0.90;99.90;;;;;;5127861;28;20203;-82
2022/02/23 08:27:47;;;;;;;0.80;0.80;;;-0.90;99.90;;;;;;5126895;28;20807;-82
2022/02/23 08:30:13;;;;;;;0.80;0.80;;;-0.80;99.90;;;;;;5109893;28;20211;-82
2022/02/23 08:32:38;;;;;;;1.20;1.10;;;-0.70;99.90;;;;;;5114010;28;20255;-82
2022/02/23 08:35:05;;;;;;;0.80;0.80;;;-0.60;99.90;;;;;;5127605;28;20215;-82
2022/02/23 08:37:30;;;;;;;0.70;0.70;;;-0.50;99.90;;;;;;5126186;28;20214;-82
2022/02/23 08:39:56;;;;;;;0.70;0.70;;;-0.40;99.90;;;;;;5126775;28;20203;-83
2022/02/23 08:42:22;;;;;;;0.80;0.80;;;-0.20;99.90;;;;;;5091609;28;20219;-83
2022/02/23 08:44:48;;;;;;;0.85;0.85;;;-0.30;99.90;;;;;;5128196;28;20203;-82
2022/02/23 08:47:15;;;;;;;0.82;0.82;;;-0.20;99.90;;;;;;5110651;28;20196;-84
2022/02/23 08:49:41;;;;;;;0.75;0.75;;;-0.10;99.90;;;;;;5109581;28;20325;-83
2022/02/23 08:52:08;;;;;;;0.70;0.70;;;-0.20;99.90;;;;;;5112503;28;20255;-83
2022/02/23 08:54:33;;;;;;;0.77;0.77;;;-0.20;99.90;;;;;;5115184;27;20219;-83
2022/02/23 08:56:59;;;;;;;0.80;0.80;;;-0.20;99.90;;;;;;5114610;27;20204;-84
2022/02/23 08:59:25;;;;;;;0.70;0.70;;;-0.30;99.90;;;;;;5122988;27;20206;-82
2022/02/23 09:01:51;;;;;;;0.80;0.80;;;-0.30;99.90;;;;;;5118273;27;20209;-83
2022/02/23 09:04:16;;;;;;;0.80;0.80;;;-0.20;99.90;;;;;;5125897;27;20618;-83
2022/02/23 09:06:42;;;;;;;0.75;0.75;;;-0.30;99.90;;;;;;5121370;27;20231;-82
2022/02/23 09:09:11;;;;;;;0.85;0.85;;;-0.20;99.90;;;;;;5123012;27;20202;-82
2022/02/23 09:11:37;;;;;;;0.85;0.85;;;-0.10;99.90;;;;;;5122782;27;20203;-83
2022/02/23 09:14:03;;;;;;;1.85;1.30;;;0.00;99.90;;;;;;5102732;28;20223;-83
2022/02/23 09:16:30;;;;;;;0.70;0.70;;;0.10;99.90;;;;;;5118957;27;20207;-83
2022/02/23 09:18:55;;;;;;;0.70;0.70;;;0.20;99.90;;;;;;5127311;27;20541;-82
2022/02/23 09:21:21;;;;;;;0.70;0.70;;;0.30;99.90;;;;;;5130921;27;20202;-81
2022/02/23 09:23:47;;;;;;;2.90;1.55;;;0.40;99.90;;;;;;5115877;27;20360;-83
2022/02/23 09:26:14;;;;;;;0.70;0.70;;;0.50;99.90;;;;;;5129216;27;20210;-83
2022/02/23 09:28:39;;;;;;;0.80;0.80;;;0.50;99.90;;;;;;5131176;27;20195;-82
2022/02/23 09:31:07;;;;;;;0.70;0.70;;;0.60;99.90;;;;;;5130509;27;20199;-82
2022/02/23 09:33:33;;;;;;;0.60;0.60;;;0.70;99.90;;;;;;5112762;28;20210;-82
2022/02/23 09:36:04;;;;;;;0.80;0.80;;;0.80;99.90;;;;;;5113746;28;20613;-84
2022/02/23 09:38:31;;;;;;;0.60;0.60;;;0.80;99.90;;;;;;5113798;28;20306;-82
2022/02/23 09:40:59;;;;;;;0.68;0.68;;;1.00;99.90;;;;;;5112917;27;20723;-83
2022/02/23 09:43:25;;;;;;;0.80;0.80;;;1.20;99.90;;;;;;5112245;28;20578;-83
2022/02/23 09:45:56;;;;;;;0.70;0.70;;;1.20;99.90;;;;;;5113827;28;20563;-83
2022/02/23 09:48:28;;;;;;;0.82;0.82;;;1.40;99.90;;;;;;5114954;27;20211;-83
2022/02/23 09:50:54;;;;;;;0.60;0.60;;;1.40;99.90;;;;;;5126266;27;20235;-82
2022/02/23 09:53:21;;;;;;;1.13;1.00;;;1.40;99.90;;;;;;5114806;27;20223;-84
2022/02/23 09:55:47;;;;;;;0.70;0.70;;;1.30;99.90;;;;;;5129398;27;20569;-83
2022/02/23 09:58:13;;;;;;;0.82;0.80;;;1.30;99.90;;;;;;5118495;27;20207;-83
2022/02/23 10:00:39;;;;;;;0.70;0.70;;;1.30;99.90;;;;;;5106794;28;20268;-83
2022/02/23 10:03:05;;;;;;;0.60;0.60;;;1.40;99.90;;;;;;5128842;27;20211;-82
2022/02/23 10:05:38;;;;;;;32.63;1.88;;;1.50;99.90;;;;;;5120612;27;20230;-83
2022/02/23 10:08:06;;;;;;;0.90;0.90;;;1.70;99.90;;;;;;5104309;28;20286;-83
2022/02/23 10:10:34;;;;;;;0.70;0.70;;;1.70;99.90;;;;;;5120580;27;20199;-83
2022/02/23 10:13:03;;;;;;;0.80;0.80;;;1.90;99.90;;;;;;5129985;27;20302;-83
2022/02/23 10:15:30;;;;;;;0.90;0.90;;;2.10;99.90;;;;;;5122478;27;20207;-83
2022/02/23 10:18:04;;;;;;;0.70;0.70;;;2.20;99.90;;;;;;5117998;27;20708;-83
2022/02/23 10:20:36;;;;;;;0.80;0.80;;;2.40;99.90;;;;;;5129915;27;20246;-83
2022/02/23 10:23:06;;;;;;;0.70;0.70;;;2.50;99.90;;;;;;5124133;27;20227;-83
2022/02/23 10:25:42;;;;;;;0.70;0.70;;;2.50;99.90;;;;;;5124575;27;20628;-82
2022/02/23 10:28:20;;;;;;;0.70;0.70;;;2.50;99.90;;;;;;5101563;28;20207;-83
2022/02/23 10:30:53;;;;;;;0.68;0.68;;;2.50;99.90;;;;;;5129844;27;20201;-82
2022/02/23 10:33:25;;;;;;;0.60;0.60;;;2.40;99.90;;;;;;5129626;27;20208;-83
2022/02/23 10:36:05;;;;;;;0.60;0.60;;;2.50;99.90;;;;;;5129628;27;20203;-82
2022/02/23 10:38:37;;;;;;;0.65;0.65;;;2.50;99.90;;;;;;5120621;27;20579;-82
2022/02/23 10:41:05;;;;;;;0.60;0.60;;;2.60;99.90;;;;;;5101783;28;20260;-82
2022/02/23 10:43:49;;;;;;;0.77;0.77;;;2.60;99.90;;;;;;5128120;27;20206;-83
2022/02/23 10:46:17;;;;;;;0.70;0.70;;;2.70;99.90;;;;;;5131151;27;20234;-83
2022/02/23 10:48:55;;;;;;;0.90;0.90;;;2.90;99.90;;;;;;5125490;27;20206;-83
2022/02/23 10:51:27;;;;;;;0.52;0.52;;;2.90;99.90;;;;;;5102806;28;20195;-83
2022/02/23 10:54:01;;;;;;;0.85;0.85;;;3.00;99.90;;;;;;5128067;27;20306;-83
2022/02/23 10:56:29;;;;;;;0.70;0.70;;;2.90;99.90;;;;;;5117995;27;20210;-84
2022/02/23 10:59:19;;;;;;;0.75;0.75;;;2.70;99.90;;;;;;5113592;27;20204;-83
2022/02/23 11:01:49;;;;;;;0.70;0.70;;;2.70;99.90;;;;;;5119244;27;20200;-84
2022/02/23 11:04:16;;;;;;;0.50;0.50;;;2.50;99.90;;;;;;5103803;28;20260;-84
2022/02/23 11:06:42;;;;;;;0.60;0.60;;;2.50;99.90;;;;;;5112073;28;20195;-84
2022/02/23 11:09:09;;;;;;;0.60;0.60;;;2.50;99.90;;;;;;5121120;27;20234;-84
2022/02/23 11:11:36;;;;;;;0.73;0.73;;;2.50;99.90;;;;;;5118366;27;20246;-85
2022/02/23 11:14:03;;;;;;;0.70;0.70;;;2.50;99.90;;;;;;5122989;27;20204;-85
2022/02/23 11:16:32;;;;;;;0.70;0.70;;;2.60;99.90;;;;;;5099514;28;20222;-85
2022/02/23 11:19:00;;;;;;;0.50;0.50;;;2.70;99.90;;;;;;5128846;27;20195;-85
2022/02/23 11:21:32;;;;;;;0.65;0.65;;;2.80;99.90;;;;;;5127501;27;20207;-84
2022/02/23 11:24:03;;;;;;;0.50;0.50;;;2.90;99.90;;;;;;5127941;27;20200;-85
2022/02/23 11:26:34;;;;;;;0.57;0.57;;;3.10;99.90;;;;;;5129027;27;20245;-84
2022/02/23 11:29:15;;;;;;;0.60;0.60;;;3.20;99.90;;;;;;5130839;27;20200;-85
2022/02/23 11:31:41;;;;;;;0.70;0.70;;;3.30;99.90;;;;;;5123623;27;20191;-86
2022/02/23 11:34:12;;;;;;;0.65;0.65;;;3.40;99.90;;;;;;5128908;27;20214;-85
2022/02/23 11:36:44;;;;;;;0.70;0.70;;;3.50;99.90;;;;;;5128693;27;20215;-87
2022/02/23 11:39:14;;;;;;;0.60;0.60;;;3.50;99.90;;;;;;5111323;28;20577;-85
2022/02/23 11:41:44;;;;;;;0.52;0.52;;;3.60;99.90;;;;;;5128448;27;20207;-85
2022/02/23 11:44:14;;;;;;;0.60;0.60;;;3.30;99.90;;;;;;5111553;28;20214;-85
2022/02/23 11:47:12;;;;;;;0.68;0.68;;;3.10;99.90;;;;;;5128427;27;20227;-84
2022/02/23 11:49:52;;;;;;;0.90;0.90;;;2.80;99.90;;;;;;5117111;27;20203;-85
2022/02/23 11:52:20;;;;;;;0.65;0.65;;;2.80;99.90;;;;;;5120417;27;20290;-85
2022/02/23 11:54:52;;;;;;;0.68;0.68;;;3.00;99.90;;;;;;5107989;28;20361;-84
2022/02/23 11:57:36;;;;;;;0.68;0.68;;;3.00;99.90;;;;;;5111330;28;20211;-85
2022/02/23 12:00:07;;;;;;;0.70;0.70;;;3.10;99.90;;;;;;5121483;27;20250;-85
2022/02/23 12:02:34;;;;;;;0.63;0.63;;;3.10;99.90;;;;;;5117444;27;20206;-84
2022/02/23 12:04:59;;;;;;;0.70;0.70;;;3.00;99.90;;;;;;5110396;28;20677;-84
2022/02/23 12:07:29;;;;;;;1.05;0.98;;;3.00;99.90;;;;;;5127124;28;20203;-84
2022/02/23 12:09:58;;;;;;;0.60;0.60;;;3.30;99.90;;;;;;5109899;28;20200;-84
2022/02/23 12:12:41;;;;;;;0.70;0.70;;;3.90;99.90;;;;;;5128234;28;20236;-83
2022/02/23 12:15:22;;;;;;;0.85;0.85;;;4.40;99.90;;;;;;5099137;28;20572;-83
2022/02/23 12:18:16;;;;;;;0.50;0.50;;;4.60;99.90;;;;;;5107761;28;20222;-83
2022/02/23 12:20:45;;;;;;;0.50;0.50;;;4.80;99.90;;;;;;5111536;28;20215;-84
2022/02/23 12:23:20;;;;;;;0.68;0.68;;;4.40;99.90;;;;;;5129002;28;20608;-84
2022/02/23 12:25:58;;;;;;;0.73;0.73;;;4.50;99.90;;;;;;5130167;27;20249;-84
2022/02/23 12:28:31;;;;;;;0.60;0.60;;;4.80;99.90;;;;;;5115811;28;20274;-86
2022/02/23 12:31:01;;;;;;;0.60;0.60;;;4.90;99.90;;;;;;5135835;27;20562;-85
2022/02/23 12:33:27;;;;;;;0.60;0.60;;;5.10;99.90;;;;;;5154731;27;20226;-86
2022/02/23 12:35:54;;;;;;;0.70;0.70;;;5.30;99.90;;;;;;5137794;28;20203;-86
2022/02/23 12:38:28;;;;;;;0.60;0.60;;;5.60;99.90;;;;;;5154716;27;20207;-86
2022/02/23 12:40:57;;;;;;;1.30;1.20;;;5.90;99.90;;;;;;5139599;27;20187;-87
2022/02/23 12:43:24;;;;;;;0.60;0.60;;;5.80;99.90;;;;;;5139107;27;20206;-86
2022/02/23 12:45:58;;;;;;;0.60;0.60;;;5.70;99.90;;;;;;5138317;28;20235;-86
2022/02/23 12:48:25;;;;;;;0.63;0.63;;;5.70;99.90;;;;;;5140952;27;20204;-85
2022/02/23 12:51:02;;;;;;;1.33;1.23;;;5.80;99.90;;;;;;5136466;27;20219;-85
2022/02/23 12:53:39;;;;;;;0.68;0.68;;;5.90;99.90;;;;;;5154589;27;20238;-84
2022/02/23 12:56:18;;;;;;;0.63;0.63;;;5.90;99.90;;;;;;5154606;27;20262;-83